Time;durP1;ratioP1;P1;durP2;ratioP2;P2;SDS_P1;SDS_P2;PMS_P1;PMS_P2;Temp;Humidity;BMP_temperature;BMP_pressure;BME280_temperature;BME280_humidity;BME280_pressure;Samples;Min_cycle;Max_cycle;Signal;HPM_P1;HPM_P2
2022/08/30 00:03:01;;;;;;;4.70;1.00;;;;;;;15.83;100.00;100071.34;105127;1271;68622;-67
2022/08/30 00:05:50;;;;;;;5.00;0.80;;;;;;;15.78;100.00;100069.80;104937;1271;72519;-65
2022/08/30 00:08:44;;;;;;;4.60;0.70;;;;;;;15.75;100.00;100074.01;104905;1271;60013;-66
2022/08/30 00:11:32;;;;;;;5.60;0.90;;;;;;;15.74;100.00;100077.05;104972;1271;59539;-66
2022/08/30 00:14:20;;;;;;;5.30;0.90;;;;;;;15.73;100.00;100080.89;104985;1271;75075;-66
2022/08/30 00:17:08;;;;;;;4.50;0.90;;;;;;;15.72;100.00;100084.55;105315;1271;68517;-65
2022/08/30 00:19:57;;;;;;;4.00;0.70;;;;;;;15.73;100.00;100081.61;105072;1271;74404;-66
2022/08/30 00:22:45;;;;;;;6.00;0.90;;;;;;;15.73;100.00;100083.91;105185;1271;59717;-67
2022/08/30 00:25:34;;;;;;;3.90;0.80;;;;;;;15.71;100.00;100079.45;104974;1271;61001;-67
2022/08/30 00:28:22;;;;;;;4.00;0.80;;;;;;;15.70;100.00;100082.27;104932;1271;73248;-67
2022/08/30 00:31:11;;;;;;;4.50;0.90;;;;;;;15.65;100.00;100085.02;104971;1271;68604;-67
2022/08/30 00:34:04;;;;;;;5.50;0.90;;;;;;;15.63;100.00;100081.48;104964;1271;74218;-66
2022/08/30 00:36:51;;;;;;;3.70;0.70;;;;;;;15.60;100.00;100083.02;104936;1271;59654;-67
2022/08/30 00:39:40;;;;;;;3.20;0.80;;;;;;;15.59;100.00;100087.42;105089;1271;61041;-66
2022/08/30 00:42:29;;;;;;;3.90;0.80;;;;;;;15.56;100.00;100090.94;105148;1271;73667;-69
2022/08/30 00:45:24;;;;;;;4.90;0.90;;;;;;;15.54;100.00;100098.64;105015;1271;68611;-67
2022/08/30 00:48:12;;;;;;;4.70;0.80;;;;;;;15.51;100.00;100100.19;105060;1271;74408;-68
2022/08/30 00:51:06;;;;;;;4.80;0.90;;;;;;;15.48;100.00;100101.23;105262;1271;60606;-68
2022/08/30 00:53:56;;;;;;;4.20;0.90;;;;;;;15.43;100.00;100100.09;105140;1271;62050;-66
2022/08/30 00:56:47;;;;;;;4.70;0.90;;;;;;;15.40;100.00;100099.64;105278;1271;72795;-66
2022/08/30 00:59:35;;;;;;;4.50;0.90;;;;;;;15.40;100.00;100098.41;104927;1271;68634;-66
2022/08/30 01:02:26;;;;;;;5.40;0.80;;;;;;;15.38;100.00;100096.14;104949;1271;73352;-67
2022/08/30 01:05:15;;;;;;;3.50;0.80;;;;;;;15.37;100.00;100094.42;104834;1271;61296;-68
2022/08/30 01:08:04;;;;;;;4.80;0.90;;;;;;;15.37;100.00;100097.07;104992;1271;62053;-68
2022/08/30 01:10:54;;;;;;;4.60;0.90;;;;;;;15.35;100.00;100097.99;104754;1271;73817;-67
2022/08/30 01:13:46;;;;;;;4.40;0.90;;;;;;;15.34;100.00;100100.04;105140;1271;68564;-67
2022/08/30 01:16:35;;;;;;;5.10;0.80;;;;;;;15.34;100.00;100096.98;105147;1271;71610;-68
2022/08/30 01:19:52;;;;;;;5.40;1.00;;;;;;;15.34;100.00;100102.41;104894;1271;61200;-67
2022/08/30 01:22:48;;;;;;;4.10;0.90;;;;;;;15.32;100.00;100101.30;104908;1271;60400;-71
2022/08/30 01:25:41;;;;;;;5.00;1.00;;;;;;;15.31;100.00;100107.29;105208;1271;74283;-72
2022/08/30 01:28:30;;;;;;;6.50;1.20;;;;;;;15.29;100.00;100107.81;105076;1271;69562;-69
2022/08/30 01:31:19;;;;;;;5.90;0.80;;;;;;;15.29;100.00;100106.26;104884;1273;73001;-67
2022/08/30 01:34:08;;;;;;;5.10;1.00;;;;;;;15.28;100.00;100109.04;104971;1271;59762;-68
2022/08/30 01:36:56;;;;;;;5.40;1.10;;;;;;;15.28;100.00;100110.10;105277;1271;61661;-68
2022/08/30 01:39:46;;;;;;;4.70;0.80;;;;;;;15.30;100.00;100110.80;105006;1271;74697;-68
2022/08/30 01:42:34;;;;;;;5.10;1.20;;;;;;;15.29;100.00;100107.67;105087;1271;68586;-69
2022/08/30 01:45:22;;;;;;;4.70;0.90;;;;;;;15.28;100.00;100108.86;105048;1271;73484;-67
2022/08/30 01:48:13;;;;;;;6.50;1.00;;;;;;;15.29;100.00;100109.67;105156;1271;60783;-67
2022/08/30 01:51:04;;;;;;;5.90;1.10;;;;;;;15.28;100.00;100106.15;105465;1271;60662;-67
2022/08/30 01:53:53;;;;;;;6.10;1.00;;;;;;;15.26;100.00;100105.97;105243;1271;73689;-69
2022/08/30 01:56:42;;;;;;;7.00;1.20;;;;;;;15.24;100.00;100108.30;105047;1271;67622;-67
2022/08/30 01:59:30;;;;;;;5.80;0.90;;;;;;;15.23;100.00;100106.66;104988;1271;73497;-69
2022/08/30 02:02:24;;;;;;;4.50;1.00;;;;;;;15.23;100.00;100107.02;104190;1271;1356069;-66
2022/08/30 02:05:12;;;;;;;6.00;1.10;;;;;;;15.23;100.00;100109.30;104971;1271;62023;-69
2022/08/30 02:08:02;;;;;;;6.90;1.00;;;;;;;15.22;100.00;100109.76;105081;1271;72779;-68
2022/08/30 02:10:50;;;;;;;4.30;0.90;;;;;;;15.21;100.00;100109.94;105131;1271;68649;-67
2022/08/30 02:13:40;;;;;;;6.10;1.10;;;;;;;15.20;100.00;100114.49;105132;1271;74277;-68
2022/08/30 02:16:29;;;;;;;7.30;1.20;;;;;;;15.19;100.00;100113.16;104974;1271;60135;-68
2022/08/30 02:19:17;;;;;;;6.30;1.10;;;;;;;15.17;100.00;100115.27;104841;1271;59654;-66
2022/08/30 02:22:05;;;;;;;5.50;1.20;;;;;;;15.15;100.00;100118.80;105086;1271;73645;-70
2022/08/30 02:24:54;;;;;;;6.00;1.10;;;;;;;15.13;100.00;100116.92;105113;1271;69583;-60
2022/08/30 02:27:42;;;;;;;4.80;0.90;;;;;;;15.15;100.00;100118.52;105109;1271;74596;-63
2022/08/30 02:30:30;;;;;;;6.80;1.30;;;;;;;15.13;100.00;100121.20;105262;1271;60332;-63
2022/08/30 02:33:19;;;;;;;5.60;1.00;;;;;;;15.10;100.00;100123.92;105140;1270;62046;-65
2022/08/30 02:36:08;;;;;;;7.10;1.10;;;;;;;15.08;100.00;100127.20;105119;1271;74743;-66
2022/08/30 02:38:56;;;;;;;7.00;1.20;;;;;;;15.07;100.00;100128.35;104988;1271;67494;-67
2022/08/30 02:41:44;;;;;;;5.30;1.10;;;;;;;15.10;100.00;100123.82;105151;1271;74032;-66
2022/08/30 02:44:32;;;;;;;5.20;0.90;;;;;;;15.08;100.00;100127.70;105019;1271;60162;-67
2022/08/30 02:47:20;;;;;;;4.30;0.90;;;;;;;15.06;100.00;100127.06;104978;1271;59864;-66
2022/08/30 02:50:09;;;;;;;6.50;1.30;;;;;;;15.02;100.00;100132.41;104962;1271;72936;-68
2022/08/30 02:52:57;;;;;;;4.80;1.10;;;;;;;14.97;100.00;100131.08;105184;1271;68549;-68
2022/08/30 02:55:46;;;;;;;4.30;1.10;;;;;;;14.96;100.00;100129.93;105196;1271;73905;-67
2022/08/30 02:58:36;;;;;;;3.90;0.70;;;;;;;14.93;100.00;100125.76;105092;1271;59692;-66
2022/08/30 03:01:24;;;;;;;4.60;0.90;;;;;;;14.89;100.00;100126.48;105010;1271;60904;-66
2022/08/30 03:04:15;;;;;;;5.70;0.90;;;;;;;14.87;100.00;100131.67;105033;1271;74675;-67
2022/08/30 03:07:07;;;;;;;4.10;1.00;;;;;;;14.82;100.00;100131.43;104986;1271;69415;-66
2022/08/30 03:09:55;;;;;;;6.40;1.00;;;;;;;14.78;100.00;100134.89;104948;1271;74402;-67
2022/08/30 03:12:43;;;;;;;6.40;0.90;;;;;;;14.76;100.00;100138.64;104980;1271;60569;-67
2022/08/30 03:15:31;;;;;;;3.00;0.60;;;;;;;14.74;100.00;100139.82;105044;1270;59583;-69
2022/08/30 03:18:21;;;;;;;3.20;0.70;;;;;;;14.73;100.00;100139.10;105042;1271;73891;-67
2022/08/30 03:21:12;;;;;;;5.20;1.00;;;;;;;14.71;100.00;100147.15;105042;1271;67059;-67
2022/08/30 03:23:59;;;;;;;7.70;0.90;;;;;;;14.66;100.00;100144.91;104828;1271;73191;-66
2022/08/30 03:26:48;;;;;;;5.10;1.00;;;;;;;14.65;100.00;100140.56;105125;1271;60610;-67
2022/08/30 03:29:35;;;;;;;4.70;0.80;;;;;;;14.60;100.00;100140.98;105170;1271;62083;-66
2022/08/30 03:32:23;;;;;;;4.20;0.90;;;;;;;14.54;100.00;100139.53;105143;1271;74697;-68
2022/08/30 03:35:13;;;;;;;4.70;1.00;;;;;;;14.50;100.00;100137.11;105174;1271;68667;-68
2022/08/30 03:38:02;;;;;;;3.90;1.00;;;;;;;14.45;100.00;100141.48;105170;1271;73671;-67
2022/08/30 03:40:50;;;;;;;5.20;1.00;;;;;;;14.43;100.00;100140.73;105149;1271;61357;-69
2022/08/30 03:43:38;;;;;;;3.70;0.90;;;;;;;14.41;100.00;100144.14;104888;1271;61892;-67
2022/08/30 03:46:28;;;;;;;3.80;0.90;;;;;;;14.38;100.00;100143.70;104972;1271;74737;-66
2022/08/30 03:49:17;;;;;;;4.80;1.20;;;;;;;14.34;100.00;100144.59;104991;1271;69512;-67
2022/08/30 03:52:05;;;;;;;3.80;0.80;;;;;;;14.31;100.00;100148.48;105222;1270;71684;-67
2022/08/30 03:54:53;;;;;;;5.10;1.10;;;;;;;14.27;100.00;100148.27;105049;1271;60322;-67
2022/08/30 03:57:42;;;;;;;4.70;1.00;;;;;;;14.25;100.00;100153.11;105172;1270;60518;-68
2022/08/30 04:00:30;;;;;;;5.10;1.00;;;;;;;14.23;100.00;100153.84;105145;1271;74700;-69
2022/08/30 04:03:24;;;;;;;4.10;0.90;;;;;;;14.19;100.00;100158.30;105163;1271;67684;-67
2022/08/30 04:06:12;;;;;;;4.80;0.90;;;;;;;14.16;100.00;100155.39;105099;1271;74448;-68
2022/08/30 04:09:00;;;;;;;4.90;1.00;;;;;;;14.14;99.93;100160.52;105121;1271;59678;-69
2022/08/30 04:11:48;;;;;;;6.10;1.20;;;;;;;14.11;100.00;100154.93;105642;1271;60979;-69
2022/08/30 04:14:36;;;;;;;5.20;1.00;;;;;;;14.09;100.00;100158.82;105773;1271;72543;-70
2022/08/30 04:17:24;;;;;;;4.50;1.00;;;;;;;14.10;100.00;100156.40;105675;1270;67909;-71
2022/08/30 04:20:12;;;;;;;5.80;1.10;;;;;;;14.13;99.90;100157.44;104911;1271;74619;-69
2022/08/30 04:23:01;;;;;;;5.00;1.00;;;;;;;14.18;100.00;100163.41;104904;1271;60250;-69
2022/08/30 04:25:49;;;;;;;5.90;1.10;;;;;;;14.21;99.94;100162.58;105225;1271;59535;-69
2022/08/30 04:28:37;;;;;;;5.40;1.00;;;;;;;14.26;99.72;100163.54;105422;1271;73987;-71
2022/08/30 04:31:26;;;;;;;4.90;1.10;;;;;;;14.31;99.49;100167.38;105159;1271;66990;-70
2022/08/30 04:34:15;;;;;;;4.40;0.90;;;;;;;14.34;99.35;100170.14;105100;1271;71425;-69
2022/08/30 04:37:03;;;;;;;4.10;0.90;;;;;;;14.36;98.66;100174.59;105124;1271;61312;-71
2022/08/30 04:40:02;;;;;;;4.50;0.90;;;;;;;14.40;97.76;100177.08;105250;1270;62012;-70
2022/08/30 04:42:53;;;;;;;5.10;1.20;;;;;;;14.41;97.39;100187.02;105239;1271;73260;-70
2022/08/30 04:45:42;;;;;;;4.70;1.00;;;;;;;14.40;97.49;100191.69;105555;1271;68737;-69
2022/08/30 04:48:29;;;;;;;4.80;1.00;;;;;;;14.40;96.91;100189.54;105156;1271;74767;-70
2022/08/30 04:51:17;;;;;;;5.70;1.30;;;;;;;14.41;97.34;100190.52;104901;1271;60330;-68
2022/08/30 04:54:06;;;;;;;6.20;1.00;;;;;;;14.42;97.02;100188.47;105190;1270;59974;-70
2022/08/30 04:56:54;;;;;;;4.80;1.00;;;;;;;14.44;97.30;100189.92;105122;1271;72145;-68
2022/08/30 04:59:42;;;;;;;4.90;1.20;;;;;;;14.46;97.37;100187.23;105310;1271;67486;-70
2022/08/30 05:02:30;;;;;;;5.00;1.10;;;;;;;14.49;97.74;100190.73;105161;1271;74290;-70
2022/08/30 05:08:25;;;;;;;6.10;1.30;;;;;;;14.56;97.76;100192.94;105091;1271;60674;-70
2022/08/30 05:11:15;;;;;;;5.70;1.20;;;;;;;14.59;97.32;100188.20;104980;1271;74757;-70
2022/08/30 05:14:04;;;;;;;5.40;1.10;;;;;;;14.67;97.36;100194.29;105247;1271;68712;-70
2022/08/30 05:16:51;;;;;;;4.50;1.00;;;;;;;14.75;95.79;100199.91;105402;1271;74409;-69
2022/08/30 05:19:39;;;;;;;5.50;1.00;;;;;;;14.88;94.84;100201.06;106927;1271;59945;-70
2022/08/30 05:22:27;;;;;;;5.30;0.90;;;;;;;14.98;93.61;100204.95;105237;1271;61993;-69
2022/08/30 05:25:23;;;;;;;5.40;1.00;;;;;;;15.04;92.65;100206.52;105333;1271;73693;-70
2022/08/30 05:28:11;;;;;;;5.40;1.10;;;;;;;15.11;92.26;100206.92;108478;1270;69599;-69
2022/08/30 05:30:59;;;;;;;6.20;1.10;;;;;;;15.21;92.02;100207.10;105779;1271;74388;-69
2022/08/30 05:33:50;;;;;;;5.40;1.10;;;;;;;15.35;91.66;100214.00;104956;1271;60293;-69
2022/08/30 05:36:39;;;;;;;5.30;1.10;;;;;;;15.53;91.03;100212.29;104865;1271;62040;-69
2022/08/30 05:39:28;;;;;;;5.60;1.50;;;;;;;15.71;90.50;100217.36;105069;1271;73616;-70
2022/08/30 05:42:40;;;;;;;5.20;1.10;;;;;;;15.82;89.41;100217.71;105257;1271;67581;-71
2022/08/30 05:45:27;;;;;;;6.50;1.20;;;;;;;15.83;89.25;100217.31;105053;1271;74369;-69
2022/08/30 05:48:15;;;;;;;5.90;1.00;;;;;;;15.82;89.45;100220.81;104997;1271;61109;-69
2022/08/30 05:51:08;;;;;;;5.90;1.20;;;;;;;15.82;89.72;100217.04;105061;1271;60906;-69
2022/08/30 05:53:58;;;;;;;4.80;1.00;;;;;;;15.83;89.55;100219.80;104716;1271;72682;-70
2022/08/30 05:56:46;;;;;;;6.00;1.40;;;;;;;15.82;89.94;100220.26;104908;1271;68087;-70
2022/08/30 05:59:34;;;;;;;5.50;1.00;;;;;;;15.84;89.82;100220.45;105121;1271;72853;-69
2022/08/30 06:02:22;;;;;;;6.40;1.20;;;;;;;15.89;89.78;100220.27;105135;1271;59691;-69
2022/08/30 06:05:11;;;;;;;4.70;0.90;;;;;;;15.94;89.67;100222.50;105147;1271;60507;-71
2022/08/30 06:08:01;;;;;;;4.90;1.30;;;;;;;15.97;89.56;100226.64;105300;1271;73810;-69
2022/08/30 06:10:49;;;;;;;8.40;1.20;;;;;;;16.07;89.66;100228.01;105464;1271;68432;-73
2022/08/30 06:13:40;;;;;;;5.90;1.20;;;;;;;16.34;88.97;100226.98;105153;1271;73236;-74
2022/08/30 06:16:29;;;;;;;5.90;1.40;;;;;;;16.48;87.49;100221.81;105193;1271;61072;-73
2022/08/30 06:19:18;;;;;;;5.00;1.00;;;;;;;16.65;87.13;100231.77;105582;1271;61052;-72
2022/08/30 06:22:06;;;;;;;7.20;1.50;;;;;;;17.00;86.10;100234.86;105952;1271;74739;-74
2022/08/30 06:24:55;;;;;;;6.40;1.20;;;;;;;17.35;84.64;100236.70;105220;1271;69588;-72
2022/08/30 06:27:44;;;;;;;5.50;1.30;;;;;;;17.68;83.00;100234.55;105130;1271;72891;-72
2022/08/30 06:30:38;;;;;;;5.20;1.30;;;;;;;18.26;79.90;100235.21;105422;1271;60935;-72
2022/08/30 06:33:26;;;;;;;4.80;1.00;;;;;;;19.28;76.16;100229.34;105127;1271;61084;-72
2022/08/30 06:36:21;;;;;;;4.70;1.00;;;;;;;19.52;73.32;100233.46;105126;1271;73252;-73
2022/08/30 06:39:10;;;;;;;5.00;1.20;;;;;;;19.64;70.97;100234.38;105217;1271;66760;-72
2022/08/30 06:41:58;;;;;;;6.60;1.10;;;;;;;19.79;69.85;100233.38;105212;1271;74416;-72
2022/08/30 06:44:47;;;;;;;6.10;1.20;;;;;;;19.83;69.26;100241.23;105220;1271;59777;-72
2022/08/30 06:47:39;;;;;;;5.80;1.20;;;;;;;19.61;68.54;100240.99;105109;1271;62168;-72
2022/08/30 06:50:27;;;;;;;5.60;1.20;;;;;;;19.54;68.77;100247.09;105113;1271;72831;-72
2022/08/30 06:53:15;;;;;;;4.70;0.90;;;;;;;19.69;69.69;100242.62;104980;1271;69562;-72
2022/08/30 06:56:08;;;;;;;5.10;1.10;;;;;;;19.69;68.70;100249.41;105351;1271;72929;-71
2022/08/30 06:58:56;;;;;;;6.20;1.20;;;;;;;19.49;68.72;100254.52;105162;1271;61157;-71
2022/08/30 07:01:44;;;;;;;5.50;1.10;;;;;;;19.27;69.52;100258.28;105263;1271;60373;-71
2022/08/30 07:04:33;;;;;;;5.20;1.00;;;;;;;18.99;70.42;100255.21;105165;1271;75038;-74
2022/08/30 07:07:22;;;;;;;6.20;1.00;;;;;;;18.74;71.40;100256.50;105194;1271;68642;-73
2022/08/30 07:10:10;;;;;;;5.70;1.10;;;;;;;18.44;72.75;100264.60;105376;1268;70642;-73
2022/08/30 07:12:58;;;;;;;5.00;0.90;;;;;;;18.14;74.68;100274.92;105265;1271;59693;-72
2022/08/30 07:15:49;;;;;;;4.40;0.90;;;;;;;17.85;76.17;100276.13;105386;1271;61112;-73
2022/08/30 07:19:12;;;;;;;5.40;0.80;;;;;;;17.57;77.65;100282.69;105467;1271;73028;-73
2022/08/30 07:21:55;;;;;;;4.40;1.00;;;;;;;17.23;79.11;100278.77;105508;1271;69989;-73
2022/08/30 07:24:43;;;;;;;6.40;1.20;;;;;;;17.06;80.34;100285.88;105169;1271;73396;-73
2022/08/30 07:27:31;;;;;;;6.40;1.30;;;;;;;16.92;82.12;100288.16;105728;1271;61045;-73
2022/08/30 07:30:19;;;;;;;5.30;1.20;;;;;;;16.82;83.34;100286.86;104924;1271;61033;-73
2022/08/30 07:33:07;;;;;;;4.70;0.90;;;;;;;16.69;83.85;100294.48;105132;1271;73904;-74
2022/08/30 07:35:55;;;;;;;4.80;1.10;;;;;;;16.53;84.39;100290.69;105094;1271;69559;-73
2022/08/30 07:38:45;;;;;;;5.00;1.00;;;;;;;16.47;85.67;100294.98;105130;1271;74589;-72
2022/08/30 07:41:37;;;;;;;4.90;1.00;;;;;;;16.53;85.44;100297.67;105143;1271;59717;-71
2022/08/30 07:44:25;;;;;;;6.50;1.60;;;;;;;16.62;85.89;100300.35;105389;1271;61339;-71
2022/08/30 07:47:15;;;;;;;6.30;1.20;;;;;;;16.57;86.35;100300.27;105219;1271;74799;-74
2022/08/30 07:50:05;;;;;;;4.90;1.20;;;;;;;16.45;87.10;100300.55;105313;1271;68691;-75
2022/08/30 07:52:53;;;;;;;5.70;1.10;;;;;;;16.35;87.46;100309.58;105681;1271;74089;-72
2022/08/30 07:55:40;;;;;;;5.00;1.10;;;;;;;16.27;88.65;100304.08;105039;1271;60215;-74
2022/08/30 07:58:28;;;;;;;5.20;1.10;;;;;;;16.21;89.29;100306.09;105248;1271;61047;-74
2022/08/30 08:01:18;;;;;;;6.00;0.90;;;;;;;16.17;89.11;100303.77;105004;1271;73697;-74
2022/08/30 08:04:06;;;;;;;5.70;1.20;;;;;;;16.19;89.45;100308.29;104954;1271;68516;-75
2022/08/30 08:06:55;;;;;;;4.50;1.00;;;;;;;16.23;89.50;100307.73;104984;1271;72832;-75
2022/08/30 08:09:43;;;;;;;5.50;1.00;;;;;;;16.26;89.47;100307.92;104973;1271;59721;-76
2022/08/30 08:12:31;;;;;;;11.80;1.40;;;;;;;16.28;89.64;100308.09;104969;1271;60987;-76
2022/08/30 08:15:19;;;;;;;4.50;0.90;;;;;;;16.28;89.83;100311.32;104970;1272;73636;-76
2022/08/30 08:18:07;;;;;;;4.30;1.10;;;;;;;16.26;89.72;100312.48;106514;1271;68152;-75
2022/08/30 08:20:55;;;;;;;5.40;1.00;;;;;;;16.21;90.00;100319.23;104922;1271;74450;-75
2022/08/30 08:23:43;;;;;;;5.30;1.10;;;;;;;16.11;89.84;100323.39;105108;1271;61426;-75
2022/08/30 08:26:35;;;;;;;6.00;1.10;;;;;;;16.03;89.84;100328.82;104994;1271;61995;-74
2022/08/30 08:29:25;;;;;;;3.80;0.80;;;;;;;15.93;90.23;100332.45;105234;1271;73724;-75
2022/08/30 08:32:13;;;;;;;5.40;1.00;;;;;;;15.88;91.21;100332.33;105111;1271;66612;-75
2022/08/30 08:35:01;;;;;;;5.50;1.20;;;;;;;15.85;92.05;100336.08;104976;1271;74436;-76
2022/08/30 08:37:49;;;;;;;6.10;1.10;;;;;;;15.79;92.47;100334.44;105372;1271;60291;-74
2022/08/30 08:41:05;;;;;;;5.70;1.10;;;;;;;15.68;93.61;100340.17;105966;1271;61614;-75
2022/08/30 08:43:53;;;;;;;5.50;1.00;;;;;;;15.68;93.95;100342.14;105223;1271;73202;-74
2022/08/30 08:47:16;;;;;;;5.90;1.20;;;;;;;15.69;94.20;100340.98;105143;1271;68205;-76
2022/08/30 08:50:13;;;;;;;4.80;1.00;;;;;;;15.74;94.46;100345.88;105120;1271;74897;-75
2022/08/30 08:53:34;;;;;;;4.90;1.20;;;;;;;15.79;94.33;100351.82;104972;1271;60707;-74
2022/08/30 08:56:35;;;;;;;5.40;1.00;;;;;;;15.88;94.08;100352.78;105364;1271;60415;-75
2022/08/30 08:59:23;;;;;;;5.80;1.10;;;;;;;15.97;94.21;100352.98;105097;1271;73281;-75
2022/08/30 09:02:29;;;;;;;4.90;0.90;;;;;;;16.03;94.38;100353.65;105183;1271;68183;-73
2022/08/30 09:05:24;;;;;;;4.90;1.10;;;;;;;16.09;93.55;100356.17;105434;1271;74504;-75
2022/08/30 09:08:15;;;;;;;5.30;1.30;;;;;;;16.17;93.64;100358.23;105069;1271;59679;-75
2022/08/30 09:11:15;;;;;;;5.60;1.20;;;;;;;16.22;92.93;100358.13;105124;1271;60994;-76
2022/08/30 09:14:20;;;;;;;5.20;1.10;;;;;;;16.22;92.73;100358.18;105377;1271;73759;-74
2022/08/30 09:17:15;;;;;;;5.60;1.30;;;;;;;16.41;92.92;100359.29;105172;1271;68038;-76
2022/08/30 09:20:05;;;;;;;5.70;1.30;;;;;;;16.70;91.92;100355.40;105205;1271;74918;-76
2022/08/30 09:22:52;;;;;;;5.60;1.30;;;;;;;16.90;90.24;100358.68;105129;1271;61674;-76
2022/08/30 09:26:04;;;;;;;7.70;1.20;;;;;;;17.02;89.23;100357.62;105229;1271;60107;-76
2022/08/30 09:28:53;;;;;;;6.40;1.30;;;;;;;17.06;89.07;100359.02;105585;1271;72960;-76
2022/08/30 09:31:54;;;;;;;6.00;1.30;;;;;;;17.10;88.72;100365.83;105018;1271;67770;-76
2022/08/30 09:35:06;;;;;;;5.90;1.40;;;;;;;17.28;87.95;100365.75;104929;1271;71438;-74
2022/08/30 09:38:03;;;;;;;7.00;1.40;;;;;;;17.86;87.57;100370.66;105057;1271;60095;-74
2022/08/30 09:41:19;;;;;;;6.90;1.20;;;;;;;18.46;82.96;100370.84;104994;1271;60511;-74
2022/08/30 09:44:18;;;;;;;9.10;1.60;;;;;;;18.70;81.44;100369.75;104969;1271;73777;-72
2022/08/30 09:47:37;;;;;;;5.00;1.10;;;;;;;18.74;80.32;100370.63;104913;1273;68556;-74
2022/08/30 09:50:33;;;;;;;6.60;1.60;;;;;;;18.66;79.86;100368.28;105155;1271;74480;-75
2022/08/30 09:53:31;;;;;;;6.00;1.30;;;;;;;18.54;79.03;100372.20;105120;1271;59776;-74
2022/08/30 09:57:11;;;;;;;7.60;1.70;;;;;;;18.59;79.51;100371.80;105330;1271;60685;-73
2022/08/30 10:00:14;;;;;;;6.70;1.80;;;;;;;19.36;76.80;100362.19;105405;1273;73773;-73
2022/08/30 10:03:03;;;;;;;6.30;1.20;;;;;;;20.01;74.30;100364.49;105197;1274;68009;-74
2022/08/30 10:06:28;;;;;;;7.00;1.50;;;;;;;20.39;72.74;100365.73;106337;1271;72887;-74
2022/08/30 10:09:26;;;;;;;6.10;1.30;;;;;;;20.48;71.89;100367.98;105235;1271;59790;-74
2022/08/30 10:12:37;;;;;;;6.50;1.30;;;;;;;20.49;71.81;100369.70;104975;1273;61215;-74
2022/08/30 10:15:37;;;;;;;7.30;1.80;;;;;;;20.68;71.05;100368.94;105832;1271;73114;-72
2022/08/30 10:18:44;;;;;;;6.00;1.20;;;;;;;20.95;69.75;100368.36;105110;1271;67723;-74
2022/08/30 10:21:48;;;;;;;7.80;1.40;;;;;;;21.44;67.69;100369.95;105027;1271;72828;-74
2022/08/30 10:24:46;;;;;;;5.70;1.30;;;;;;;21.88;65.51;100366.76;107010;1271;60142;-72
2022/08/30 10:27:47;;;;;;;7.20;1.10;;;;;;;22.18;61.94;100371.50;105339;1271;59652;-73
2022/08/30 10:30:41;;;;;;;5.40;1.00;;;;;;;22.51;61.43;100374.91;105584;1271;73713;-72
2022/08/30 10:33:49;;;;;;;5.30;1.10;;;;;;;22.80;59.63;100370.77;105176;1271;68646;-72
2022/08/30 10:36:51;;;;;;;5.40;1.10;;;;;;;23.60;58.04;100377.27;105191;1271;73400;-72
2022/08/30 10:39:54;;;;;;;4.90;1.20;;;;;;;23.93;56.19;100377.25;106912;1271;59759;-73
2022/08/30 10:42:44;;;;;;;6.70;1.40;;;;;;;23.97;54.59;100380.55;107027;1272;62092;-74
2022/08/30 10:45:36;;;;;;;6.50;1.40;;;;;;;23.86;54.87;100382.89;105195;1271;73772;-73
2022/08/30 10:48:42;;;;;;;4.30;1.20;;;;;;;23.77;53.59;100382.43;105249;1271;66766;-72
2022/08/30 10:51:59;;;;;;;6.50;1.50;;;;;;;23.64;52.99;100386.61;105672;1271;73355;-73
2022/08/30 10:55:20;;;;;;;5.80;1.00;;;;;;;23.50;53.10;100385.13;104970;1271;59773;-74
2022/08/30 10:58:10;;;;;;;6.70;1.00;;;;;;;23.46;53.71;100390.35;105636;1271;61005;-72
2022/08/30 11:01:20;;;;;;;6.50;1.10;;;;;;;23.37;54.72;100386.18;105147;1271;73695;-72
2022/08/30 11:04:51;;;;;;;6.40;1.30;;;;;;;23.31;55.60;100388.80;105339;1271;67514;-71
2022/08/30 11:07:50;;;;;;;5.80;1.30;;;;;;;23.06;55.17;100393.52;105016;1271;73950;-73
2022/08/30 11:11:27;;;;;;;7.50;1.10;;;;;;;22.83;55.80;100392.94;105440;1271;59527;-74
2022/08/30 11:14:19;;;;;;;7.90;1.50;;;;;;;22.49;56.53;100389.53;105245;1271;60506;-73
2022/08/30 11:17:39;;;;;;;6.50;1.20;;;;;;;22.30;56.82;100395.63;105226;1271;73103;-75
2022/08/30 11:20:38;;;;;;;5.60;1.10;;;;;;;22.09;57.86;100395.86;105135;1271;68552;-74
2022/08/30 11:23:33;;;;;;;5.40;1.40;;;;;;;21.81;57.53;100396.88;105435;1271;74411;-73
2022/08/30 11:27:05;;;;;;;7.00;1.70;;;;;;;21.63;58.92;100396.60;105131;1271;59743;-75
2022/08/30 11:29:56;;;;;;;6.70;1.60;;;;;;;21.51;58.88;100397.10;104723;1278;62037;-75
2022/08/30 11:32:58;;;;;;;6.70;1.40;;;;;;;21.33;58.97;100400.70;104521;1280;73841;-74
2022/08/30 11:35:52;;;;;;;5.60;1.10;;;;;;;21.33;60.32;100406.30;104506;1280;69576;-74
2022/08/30 11:38:43;;;;;;;5.20;1.20;;;;;;;21.29;61.11;100409.85;104462;1279;72195;-75
2022/08/30 11:41:46;;;;;;;7.70;1.30;;;;;;;21.16;61.73;100413.13;104491;1278;59715;-75
2022/08/30 11:44:34;;;;;;;6.90;1.30;;;;;;;20.93;61.67;100421.20;104432;1279;59622;-74
2022/08/30 11:47:49;;;;;;;6.10;1.20;;;;;;;20.75;61.89;100419.70;104511;1280;74926;-75
2022/08/30 11:51:03;;;;;;;6.80;1.50;;;;;;;20.46;63.38;100414.68;104932;1277;69591;-77
2022/08/30 11:54:00;;;;;;;7.00;1.20;;;;;;;20.24;63.75;100414.97;104669;1279;71616;-76
2022/08/30 11:57:21;;;;;;;7.10;1.40;;;;;;;20.12;64.49;100413.29;104730;1278;59816;-74
2022/08/30 12:00:25;;;;;;;5.70;1.20;;;;;;;20.06;63.83;100409.86;104588;1274;62187;-73
2022/08/30 12:03:14;;;;;;;7.00;1.10;;;;;;;20.10;64.08;100409.61;107612;1271;73559;-74
2022/08/30 12:06:09;;;;;;;5.20;1.10;;;;;;;20.28;63.49;100406.30;105231;1271;68192;-75
2022/08/30 12:08:58;;;;;;;6.20;1.30;;;;;;;20.47;62.70;100398.60;105415;1271;73949;-76
2022/08/30 12:12:43;;;;;;;6.40;1.10;;;;;;;20.61;61.89;100403.59;105128;1271;59780;-75
2022/08/30 12:15:59;;;;;;;6.60;1.30;;;;;;;21.06;60.60;100407.29;105354;1271;59653;-74
2022/08/30 12:19:13;;;;;;;8.00;2.50;;;;;;;21.37;58.70;100404.35;105125;1271;74624;-74
2022/08/30 12:22:06;;;;;;;6.60;1.80;;;;;;;21.60;58.65;100402.91;105203;1271;66744;-74
2022/08/30 12:24:55;;;;;;;6.20;1.40;;;;;;;21.91;57.81;100396.94;105117;1271;72951;-74
2022/08/30 12:27:43;;;;;;;6.90;1.40;;;;;;;22.09;56.71;100401.28;105404;1271;59634;-73
2022/08/30 12:30:32;;;;;;;5.80;1.30;;;;;;;22.00;54.77;100401.94;105470;1271;61802;-73
2022/08/30 12:33:41;;;;;;;7.40;1.70;;;;;;;21.79;55.62;100401.21;105433;1271;72423;-74
2022/08/30 12:36:47;;;;;;;7.40;1.30;;;;;;;21.56;55.78;100404.19;105159;1271;69656;-74
2022/08/30 12:39:43;;;;;;;5.50;1.40;;;;;;;21.39;56.84;100407.38;105558;1271;74413;-76
2022/08/30 12:42:49;;;;;;;5.70;1.20;;;;;;;21.27;57.24;100406.96;105596;1271;59633;-73
2022/08/30 12:45:46;;;;;;;5.60;1.30;;;;;;;21.23;57.14;100404.56;105547;1271;59662;-73
2022/08/30 12:48:39;;;;;;;7.40;1.40;;;;;;;21.16;57.42;100401.42;105047;1271;73175;-74
2022/08/30 12:51:39;;;;;;;6.90;1.50;;;;;;;21.13;57.94;100405.77;105362;1271;69570;-74
2022/08/30 12:54:29;;;;;;;6.30;1.10;;;;;;;21.19;57.91;100406.35;105111;1271;72762;-74
2022/08/30 12:57:39;;;;;;;5.20;1.20;;;;;;;21.53;57.96;100405.21;105264;1271;59937;-72
2022/08/30 13:00:45;;;;;;;7.00;1.40;;;;;;;21.83;56.71;100401.69;105359;1271;61001;-75
2022/08/30 13:03:36;;;;;;;6.20;1.20;;;;;;;22.02;56.67;100405.52;105145;1271;71943;-73
2022/08/30 13:06:49;;;;;;;6.20;1.10;;;;;;;22.12;56.50;100409.95;105331;1271;67247;-73
2022/08/30 13:09:41;;;;;;;5.30;1.10;;;;;;;22.16;56.58;100408.04;105237;1271;74532;-73
2022/08/30 13:12:30;;;;;;;6.00;1.10;;;;;;;22.11;55.98;100411.08;105181;1271;60260;-72
2022/08/30 13:15:31;;;;;;;6.30;1.20;;;;;;;22.05;56.19;100409.98;105173;1271;61753;-74
2022/08/30 13:18:29;;;;;;;4.40;1.00;;;;;;;21.90;56.51;100405.55;105242;1271;72249;-74
2022/08/30 13:21:33;;;;;;;6.60;1.30;;;;;;;21.78;56.91;100402.08;105210;1271;68046;-75